createdAt,value
2019-01-31T00:04:54.006Z,2.50
2019-01-31T00:10:59.738Z,2.30
2019-01-31T00:16:39.702Z,2.40
2019-01-31T00:22:27.038Z,2.50
2019-01-31T00:27:48.516Z,2.40
2019-01-31T00:33:42.337Z,2.50
2019-01-31T00:39:44.869Z,2.60
2019-01-31T00:45:35.268Z,2.40
2019-01-31T00:51:18.035Z,2.20
2019-01-31T00:56:54.418Z,2.40
2019-01-31T01:02:59.106Z,2.40
2019-01-31T01:08:31.682Z,2.20
2019-01-31T01:14:12.716Z,2.30
2019-01-31T01:19:54.815Z,2.30
2019-01-31T01:25:31.569Z,1.70
2019-01-31T01:31:17.627Z,1.60
2019-01-31T01:36:38.863Z,1.80
2019-01-31T01:42:13.032Z,2.10
2019-01-31T01:47:43.657Z,2.30
2019-01-31T01:53:15.468Z,2.20
2019-01-31T01:58:55.412Z,2.10
2019-01-31T02:04:38.549Z,2.10
2019-01-31T02:10:23.022Z,2.20
2019-01-31T02:15:54.830Z,2.10
2019-01-31T02:21:57.469Z,2.10
2019-01-31T02:27:45.085Z,2.00
2019-01-31T02:33:16.520Z,1.80
2019-01-31T02:38:37.409Z,1.80
2019-01-31T02:44:30.853Z,1.80
2019-01-31T02:50:13.527Z,1.80
2019-01-31T02:55:39.352Z,1.80
2019-01-31T03:01:01.328Z,1.60
2019-01-31T03:06:45.077Z,1.70
2019-01-31T03:12:02.806Z,1.70
2019-01-31T03:17:43.966Z,1.80
2019-01-31T03:23:27.282Z,1.80
2019-01-31T03:28:49.383Z,1.80
2019-01-31T03:34:12.071Z,1.90
2019-01-31T03:39:49.223Z,1.70
2019-01-31T03:45:08.590Z,1.70
2019-01-31T03:50:23.053Z,1.60
2019-01-31T03:55:56.419Z,1.50
2019-01-31T04:01:30.804Z,1.50
2019-01-31T04:06:38.336Z,1.50
2019-01-31T04:11:44.463Z,1.40
2019-01-31T04:16:50.662Z,1.40
2019-01-31T04:21:57.157Z,1.50
2019-01-31T04:27:03.480Z,1.40
2019-01-31T04:32:09.699Z,1.40
2019-01-31T04:37:17.067Z,1.40
2019-01-31T04:42:23.339Z,1.40
2019-01-31T04:47:29.657Z,1.40
2019-01-31T04:52:37.919Z,1.40
2019-01-31T04:57:44.130Z,1.40
2019-01-31T05:02:50.426Z,1.40
2019-01-31T05:07:57.040Z,1.40
2019-01-31T05:13:03.488Z,1.30
2019-01-31T05:18:10.128Z,1.30
2019-01-31T05:23:17.523Z,1.20
2019-01-31T05:28:23.778Z,1.30
2019-01-31T05:33:29.918Z,1.30
2019-01-31T05:38:35.988Z,1.20
2019-01-31T05:43:42.339Z,1.30
2019-01-31T05:48:48.685Z,1.30
2019-01-31T05:53:54.964Z,1.30
2019-01-31T05:59:01.182Z,1.30
2019-01-31T06:04:08.001Z,1.30
2019-01-31T06:09:14.215Z,1.20
2019-01-31T06:14:20.632Z,1.30
2019-01-31T06:19:26.868Z,1.20
2019-01-31T06:24:33.433Z,1.20
2019-01-31T06:29:39.717Z,1.30
2019-01-31T06:34:45.808Z,1.20
2019-01-31T06:39:51.933Z,1.30
2019-01-31T06:44:59.930Z,1.30
2019-01-31T06:50:07.325Z,1.30
2019-01-31T06:55:13.533Z,1.30
2019-01-31T07:00:22.525Z,1.40
2019-01-31T07:05:28.670Z,1.60
2019-01-31T07:10:34.878Z,1.70
2019-01-31T07:15:41.646Z,1.80
2019-01-31T07:20:47.710Z,1.80
2019-01-31T07:25:53.707Z,1.80
2019-01-31T07:31:00.437Z,2.00
2019-01-31T07:36:06.732Z,2.00
2019-01-31T07:41:12.831Z,1.90
2019-01-31T07:46:19.007Z,2.00
2019-01-31T07:51:25.178Z,1.90
2019-01-31T07:56:34.192Z,1.90
2019-01-31T08:01:40.841Z,1.80
2019-01-31T08:06:47.864Z,1.80
2019-01-31T08:11:53.905Z,1.80
2019-01-31T08:17:01.043Z,1.60
2019-01-31T08:22:07.198Z,1.30
2019-01-31T08:27:13.278Z,1.40
2019-01-31T08:32:19.363Z,1.40
2019-01-31T08:37:25.870Z,1.40
2019-01-31T08:42:31.921Z,1.40
2019-01-31T08:47:38.048Z,1.40
2019-01-31T08:52:44.347Z,1.20
2019-01-31T08:57:50.478Z,1.20
2019-01-31T09:02:56.644Z,1.20
2019-01-31T09:08:03.259Z,1.30
2019-01-31T09:13:12.954Z,1.20
2019-01-31T09:18:19.915Z,1.30
2019-01-31T09:23:38.344Z,1.20
2019-01-31T09:29:17.033Z,1.40
2019-01-31T09:34:52.110Z,1.30
2019-01-31T09:40:35.573Z,1.30
2019-01-31T09:46:16.758Z,1.30
2019-01-31T09:51:49.105Z,1.10
2019-01-31T09:57:45.298Z,1.30
2019-01-31T10:03:50.861Z,1.20
2019-01-31T10:09:40.345Z,1.20
2019-01-31T10:15:13.280Z,1.20
2019-01-31T10:20:59.600Z,1.30
2019-01-31T10:26:48.045Z,1.30
2019-01-31T10:32:27.923Z,1.50
2019-01-31T10:38:00.449Z,1.40
2019-01-31T10:43:48.274Z,1.40
2019-01-31T10:49:19.751Z,1.30
2019-01-31T10:54:52.292Z,1.30
2019-01-31T11:00:40.382Z,1.30
2019-01-31T11:06:19.811Z,1.30
2019-01-31T11:12:13.228Z,1.40
2019-01-31T11:17:38.701Z,1.30
2019-01-31T11:23:01.279Z,1.30
2019-01-31T11:28:57.011Z,1.40
2019-01-31T11:34:42.582Z,1.50
2019-01-31T11:40:30.038Z,1.50
2019-01-31T11:45:59.250Z,1.40
2019-01-31T11:51:38.776Z,1.40
2019-01-31T11:57:17.144Z,1.40
2019-01-31T12:02:23.448Z,1.40
2019-01-31T12:07:29.492Z,1.40
2019-01-31T12:12:35.830Z,1.40
2019-01-31T12:17:41.880Z,1.40
2019-01-31T12:22:47.948Z,1.40
2019-01-31T12:27:54.256Z,1.20
2019-01-31T12:33:00.536Z,1.30
2019-01-31T12:38:06.808Z,1.30
2019-01-31T12:43:12.823Z,1.30
2019-01-31T12:48:18.869Z,1.30
2019-01-31T12:53:25.033Z,1.20
2019-01-31T12:58:33.840Z,1.20
2019-01-31T13:03:39.226Z,1.20
2019-01-31T13:08:45.375Z,1.30
2019-01-31T13:13:53.222Z,1.40
2019-01-31T13:19:00.318Z,1.30
2019-01-31T13:24:06.733Z,1.00
2019-01-31T13:29:12.729Z,0.90
2019-01-31T13:34:18.832Z,1.00
2019-01-31T13:39:25.287Z,1.10
2019-01-31T13:44:31.300Z,1.00
2019-01-31T13:49:37.348Z,1.10
2019-01-31T13:54:43.381Z,1.00
2019-01-31T13:59:49.574Z,0.90
2019-01-31T14:04:55.717Z,1.10
2019-01-31T14:10:01.863Z,1.20
2019-01-31T14:15:08.801Z,1.20
2019-01-31T14:20:18.110Z,1.10
2019-01-31T14:25:24.580Z,1.20
2019-01-31T14:30:35.988Z,1.00
2019-01-31T14:35:42.085Z,1.00
2019-01-31T14:40:48.473Z,0.80
2019-01-31T14:45:54.501Z,0.70
2019-01-31T14:51:00.509Z,0.90
2019-01-31T14:56:06.820Z,0.80
2019-01-31T15:01:12.685Z,0.80
2019-01-31T15:06:18.843Z,0.80
2019-01-31T15:11:24.909Z,0.90
2019-01-31T15:16:30.913Z,0.80
2019-01-31T15:21:36.928Z,0.80
2019-01-31T15:26:42.937Z,0.90
2019-01-31T15:31:50.738Z,0.80
2019-01-31T15:36:56.958Z,0.90
2019-01-31T15:42:02.911Z,0.60
2019-01-31T15:47:09.004Z,0.60
2019-01-31T15:52:15.094Z,0.60
2019-01-31T15:57:21.094Z,0.70
2019-01-31T16:02:27.169Z,0.60
2019-01-31T16:07:33.333Z,0.40
2019-01-31T16:12:39.371Z,0.30
2019-01-31T16:17:45.741Z,0.30
2019-01-31T16:22:51.732Z,0.20
2019-01-31T16:27:57.719Z,0.10
2019-01-31T16:33:03.949Z,0.10
2019-01-31T16:38:10.540Z,0.10
2019-01-31T16:43:16.543Z,0.10
2019-01-31T16:48:22.553Z,0.20
2019-01-31T16:53:28.833Z,0.00
2019-01-31T16:58:35.863Z,0.00
2019-01-31T17:03:41.885Z,-0.10
2019-01-31T17:08:47.905Z,0.00
2019-01-31T17:13:53.941Z,-0.10
2019-01-31T17:19:02.530Z,0.00
2019-01-31T17:24:08.645Z,0.10
2019-01-31T17:29:14.600Z,0.00
2019-01-31T17:34:20.602Z,0.00
2019-01-31T17:39:26.812Z,-0.10
2019-01-31T17:44:33.119Z,-0.20
2019-01-31T17:49:39.987Z,-0.10
2019-01-31T17:54:46.029Z,-0.40
2019-01-31T17:59:53.357Z,-0.30
2019-01-31T18:04:59.436Z,-0.30
2019-01-31T18:10:09.261Z,-0.40
2019-01-31T18:15:15.473Z,-0.40
2019-01-31T18:20:21.568Z,-0.40
2019-01-31T18:25:31.336Z,-0.30
2019-01-31T18:30:37.479Z,-0.50
2019-01-31T18:35:43.710Z,-0.60
2019-01-31T18:40:49.658Z,-0.60
2019-01-31T18:45:55.728Z,-0.50
2019-01-31T18:51:01.749Z,-0.40
2019-01-31T18:56:07.777Z,-0.40
2019-01-31T19:01:13.814Z,-0.30
2019-01-31T19:06:20.837Z,-0.30
2019-01-31T19:11:27.836Z,-0.30
2019-01-31T19:16:33.931Z,-0.50
2019-01-31T19:21:39.984Z,-0.50
2019-01-31T19:26:46.013Z,-0.40
2019-01-31T19:31:52.132Z,-0.50
2019-01-31T19:36:58.209Z,-0.50
2019-01-31T19:42:04.252Z,-0.50
2019-01-31T19:47:10.366Z,-1.00
2019-01-31T19:52:16.377Z,-0.70
2019-01-31T19:57:24.000Z,-0.60
2019-01-31T20:02:30.036Z,-0.60
2019-01-31T20:07:36.133Z,-0.70
2019-01-31T20:12:42.449Z,-0.50
2019-01-31T20:17:48.462Z,-0.50
2019-01-31T20:22:55.889Z,-0.50
2019-01-31T20:28:01.904Z,-0.50
2019-01-31T20:33:08.037Z,-0.50
2019-01-31T20:38:16.494Z,-0.40
2019-01-31T20:43:23.942Z,-0.50
2019-01-31T20:48:29.929Z,-0.40
2019-01-31T20:53:35.950Z,-0.60
2019-01-31T20:58:44.701Z,-0.50
2019-01-31T21:03:49.905Z,-0.40
2019-01-31T21:08:56.020Z,-0.50
2019-01-31T21:14:02.060Z,-0.50
2019-01-31T21:19:09.061Z,-0.50
2019-01-31T21:24:16.123Z,-0.50
2019-01-31T21:29:22.080Z,-0.50
2019-01-31T21:34:28.390Z,-0.40
2019-01-31T21:39:34.518Z,-0.50
2019-01-31T21:44:40.534Z,-0.50
2019-01-31T21:49:46.561Z,-0.60
2019-01-31T21:54:52.642Z,-0.40
2019-01-31T21:59:58.593Z,-0.60
2019-01-31T22:05:06.294Z,-0.50
2019-01-31T22:10:13.158Z,-0.50
2019-01-31T22:15:24.573Z,-0.60
2019-01-31T22:20:30.936Z,-0.50
2019-01-31T22:25:36.984Z,-0.40
2019-01-31T22:30:43.973Z,-0.50
2019-01-31T22:35:49.999Z,-0.40
2019-01-31T22:40:56.124Z,-0.40
2019-01-31T22:46:02.154Z,-0.40
2019-01-31T22:51:08.157Z,-0.40
2019-01-31T22:56:14.191Z,-0.40
2019-01-31T23:01:31.205Z,-0.40
2019-01-31T23:06:37.213Z,-0.40
2019-01-31T23:11:43.271Z,-0.30
2019-01-31T23:16:49.298Z,-0.40
2019-01-31T23:21:55.320Z,-0.30
2019-01-31T23:27:01.332Z,-0.40
2019-01-31T23:32:07.387Z,-0.30
2019-01-31T23:37:13.432Z,-0.30
2019-01-31T23:42:19.533Z,-0.30
2019-01-31T23:47:25.613Z,-0.30
2019-01-31T23:52:31.673Z,-0.30
2019-01-31T23:57:38.982Z,-0.20
